sensor_id;sensor_type;location;lat;lon;timestamp;pressure;altitude;pressure_sealevel;temperature;humidity
28000;BME280;15328;50.860;10.562;2023-07-31T00:02:47;96276.72;;;18.02;53.92
28000;BME280;15328;50.860;10.562;2023-07-31T00:07:47;96266.75;;;17.92;54.46
28000;BME280;15328;50.860;10.562;2023-07-31T00:12:47;96264.34;;;17.86;54.86
28000;BME280;15328;50.860;10.562;2023-07-31T00:17:48;96244.41;;;17.77;55.03
28000;BME280;15328;50.860;10.562;2023-07-31T00:22:48;96233.38;;;17.73;55.31
28000;BME280;15328;50.860;10.562;2023-07-31T00:27:48;96225.53;;;17.67;55.47
28000;BME280;15328;50.860;10.562;2023-07-31T00:32:49;96219.91;;;17.63;55.33
28000;BME280;15328;50.860;10.562;2023-07-31T00:37:49;96211.84;;;17.68;55.30
28000;BME280;15328;50.860;10.562;2023-07-31T00:42:50;96198.09;;;17.65;55.26
28000;BME280;15328;50.860;10.562;2023-07-31T00:47:50;96207.00;;;17.55;55.19
28000;BME280;15328;50.860;10.562;2023-07-31T00:52:50;96207.50;;;17.52;55.33
28000;BME280;15328;50.860;10.562;2023-07-31T00:57:52;96215.31;;;17.53;55.38
28000;BME280;15328;50.860;10.562;2023-07-31T01:02:53;96214.22;;;17.49;55.30
28000;BME280;15328;50.860;10.562;2023-07-31T01:08:05;96193.78;;;17.48;55.33
28000;BME280;15328;50.860;10.562;2023-07-31T01:13:09;96188.44;;;17.53;55.54
28000;BME280;15328;50.860;10.562;2023-07-31T01:18:10;96186.00;;;17.62;55.58
28000;BME280;15328;50.860;10.562;2023-07-31T01:23:20;96186.78;;;17.52;56.32
28000;BME280;15328;50.860;10.562;2023-07-31T01:28:26;96172.56;;;17.57;57.05
28000;BME280;15328;50.860;10.562;2023-07-31T01:33:28;96171.72;;;17.46;57.66
28000;BME280;15328;50.860;10.562;2023-07-31T01:38:28;96172.53;;;17.42;57.79
28000;BME280;15328;50.860;10.562;2023-07-31T01:43:29;96168.22;;;17.30;59.01
28000;BME280;15328;50.860;10.562;2023-07-31T01:48:29;96161.78;;;17.26;59.47
28000;BME280;15328;50.860;10.562;2023-07-31T01:53:35;96159.06;;;17.16;60.23
28000;BME280;15328;50.860;10.562;2023-07-31T01:58:36;96163.09;;;17.19;60.38
28000;BME280;15328;50.860;10.562;2023-07-31T02:03:36;96152.06;;;17.15;60.82
28000;BME280;15328;50.860;10.562;2023-07-31T02:08:36;96146.13;;;17.03;61.28
28000;BME280;15328;50.860;10.562;2023-07-31T02:13:37;96145.81;;;16.94;62.00
28000;BME280;15328;50.860;10.562;2023-07-31T02:18:37;96138.56;;;16.85;63.08
28000;BME280;15328;50.860;10.562;2023-07-31T02:23:38;96129.97;;;16.83;63.14
28000;BME280;15328;50.860;10.562;2023-07-31T02:28:38;96133.97;;;16.75;63.62
28000;BME280;15328;50.860;10.562;2023-07-31T02:33:38;96126.69;;;16.71;64.34
28000;BME280;15328;50.860;10.562;2023-07-31T02:38:39;96117.00;;;16.69;64.63
28000;BME280;15328;50.860;10.562;2023-07-31T02:43:39;96128.78;;;16.63;64.81
28000;BME280;15328;50.860;10.562;2023-07-31T02:48:39;96130.38;;;16.64;65.08
28000;BME280;15328;50.860;10.562;2023-07-31T02:53:40;96136.56;;;16.65;64.95
28000;BME280;15328;50.860;10.562;2023-07-31T02:58:40;96137.69;;;16.69;65.58
28000;BME280;15328;50.860;10.562;2023-07-31T03:03:41;96136.88;;;16.68;65.54
28000;BME280;15328;50.860;10.562;2023-07-31T03:08:42;96136.91;;;16.74;65.43
28000;BME280;15328;50.860;10.562;2023-07-31T03:13:42;96131.56;;;16.74;65.40
28000;BME280;15328;50.860;10.562;2023-07-31T03:18:42;96132.34;;;16.74;65.71
28000;BME280;15328;50.860;10.562;2023-07-31T03:23:42;96122.69;;;16.78;65.29
28000;BME280;15328;50.860;10.562;2023-07-31T03:28:43;96124.59;;;16.83;65.38
28000;BME280;15328;50.860;10.562;2023-07-31T03:33:44;96146.00;;;16.67;66.04
28000;BME280;15328;50.860;10.562;2023-07-31T03:38:44;96126.09;;;16.63;65.98
28000;BME280;15328;50.860;10.562;2023-07-31T03:43:50;96133.38;;;16.68;66.17
28000;BME280;15328;50.860;10.562;2023-07-31T03:48:56;96115.41;;;16.68;66.35
28000;BME280;15328;50.860;10.562;2023-07-31T03:53:56;96112.22;;;16.72;66.20
28000;BME280;15328;50.860;10.562;2023-07-31T03:58:56;96116.53;;;16.78;65.83
28000;BME280;15328;50.860;10.562;2023-07-31T04:03:57;96114.09;;;16.71;66.47
28000;BME280;15328;50.860;10.562;2023-07-31T04:08:57;96114.38;;;16.75;65.86
28000;BME280;15328;50.860;10.562;2023-07-31T04:13:57;96110.34;;;16.72;65.94
28000;BME280;15328;50.860;10.562;2023-07-31T04:18:58;96095.03;;;16.73;66.10
28000;BME280;15328;50.860;10.562;2023-07-31T04:23:58;96108.44;;;16.73;66.38
28000;BME280;15328;50.860;10.562;2023-07-31T04:28:58;96101.75;;;16.75;65.87
28000;BME280;15328;50.860;10.562;2023-07-31T04:33:59;96099.78;;;16.65;66.31
28000;BME280;15328;50.860;10.562;2023-07-31T04:38:59;96113.28;;;16.76;66.30
28000;BME280;15328;50.860;10.562;2023-07-31T04:44:01;96085.84;;;16.68;66.41
28000;BME280;15328;50.860;10.562;2023-07-31T04:49:01;96095.03;;;16.78;66.13
28000;BME280;15328;50.860;10.562;2023-07-31T04:54:02;96094.78;;;16.84;66.41
28000;BME280;15328;50.860;10.562;2023-07-31T04:59:02;96098.00;;;16.86;66.29
28000;BME280;15328;50.860;10.562;2023-07-31T05:04:02;96099.63;;;16.92;66.03
28000;BME280;15328;50.860;10.562;2023-07-31T05:09:03;96104.50;;;17.01;66.22
28000;BME280;15328;50.860;10.562;2023-07-31T05:14:03;96104.50;;;17.11;66.16
28000;BME280;15328;50.860;10.562;2023-07-31T05:19:03;96112.81;;;17.09;65.39
28000;BME280;15328;50.860;10.562;2023-07-31T05:24:04;96113.91;;;17.08;66.13
28000;BME280;15328;50.860;10.562;2023-07-31T05:29:04;96114.72;;;17.09;66.20
28000;BME280;15328;50.860;10.562;2023-07-31T05:34:05;96120.06;;;17.09;66.00
28000;BME280;15328;50.860;10.562;2023-07-31T05:39:05;96124.38;;;17.15;66.30
28000;BME280;15328;50.860;10.562;2023-07-31T05:44:08;96112.56;;;17.16;66.02
28000;BME280;15328;50.860;10.562;2023-07-31T05:49:08;96123.03;;;17.17;66.25
28000;BME280;15328;50.860;10.562;2023-07-31T05:54:09;96125.75;;;17.27;65.72
28000;BME280;15328;50.860;10.562;2023-07-31T05:59:12;96132.22;;;17.32;66.00
28000;BME280;15328;50.860;10.562;2023-07-31T06:04:12;96131.94;;;17.28;66.01
28000;BME280;15328;50.860;10.562;2023-07-31T06:09:13;96117.16;;;17.30;65.85
28000;BME280;15328;50.860;10.562;2023-07-31T06:14:14;96110.16;;;17.40;66.29
28000;BME280;15328;50.860;10.562;2023-07-31T06:19:14;96106.41;;;17.46;65.59
28000;BME280;15328;50.860;10.562;2023-07-31T06:24:15;96104.81;;;17.55;65.32
28000;BME280;15328;50.860;10.562;2023-07-31T06:29:19;96104.25;;;17.58;65.05
28000;BME280;15328;50.860;10.562;2023-07-31T06:34:19;96098.59;;;17.59;65.24
28000;BME280;15328;50.860;10.562;2023-07-31T06:39:20;96090.81;;;17.63;64.97
28000;BME280;15328;50.860;10.562;2023-07-31T06:44:20;96105.06;;;17.74;64.74
28000;BME280;15328;50.860;10.562;2023-07-31T06:49:20;96081.41;;;17.81;64.45
28000;BME280;15328;50.860;10.562;2023-07-31T06:54:21;96086.53;;;17.82;63.95
28000;BME280;15328;50.860;10.562;2023-07-31T06:59:21;96081.63;;;17.95;64.08
28000;BME280;15328;50.860;10.562;2023-07-31T07:04:21;96068.44;;;18.08;64.20
28000;BME280;15328;50.860;10.562;2023-07-31T07:09:22;96078.09;;;18.14;63.62
28000;BME280;15328;50.860;10.562;2023-07-31T07:14:22;96065.94;;;18.27;63.84
28000;BME280;15328;50.860;10.562;2023-07-31T07:19:22;96068.84;;;18.41;62.89
28000;BME280;15328;50.860;10.562;2023-07-31T07:24:23;96071.00;;;18.34;63.00
28000;BME280;15328;50.860;10.562;2023-07-31T07:29:23;96061.03;;;18.34;62.57
28000;BME280;15328;50.860;10.562;2023-07-31T07:34:27;96075.03;;;18.41;62.51
28000;BME280;15328;50.860;10.562;2023-07-31T07:39:28;96076.88;;;18.51;62.15
28000;BME280;15328;50.860;10.562;2023-07-31T07:44:28;96082.50;;;18.54;61.83
28000;BME280;15328;50.860;10.562;2023-07-31T07:49:28;96074.72;;;18.63;62.24
28000;BME280;15328;50.860;10.562;2023-07-31T07:54:29;96069.00;;;18.60;61.90
28000;BME280;15328;50.860;10.562;2023-07-31T07:59:30;96077.09;;;18.60;61.82
28000;BME280;15328;50.860;10.562;2023-07-31T08:04:30;96066.88;;;18.57;62.25
28000;BME280;15328;50.860;10.562;2023-07-31T08:09:31;96073.63;;;18.64;62.46
28000;BME280;15328;50.860;10.562;2023-07-31T08:14:31;96075.19;;;18.70;62.19
28000;BME280;15328;50.860;10.562;2023-07-31T08:19:32;96079.78;;;18.70;62.30
28000;BME280;15328;50.860;10.562;2023-07-31T08:24:32;96074.69;;;18.68;62.48
28000;BME280;15328;50.860;10.562;2023-07-31T08:29:32;96068.63;;;18.87;60.73
28000;BME280;15328;50.860;10.562;2023-07-31T08:34:33;96081.38;;;18.76;62.00
28000;BME280;15328;50.860;10.562;2023-07-31T08:39:33;96078.63;;;18.81;62.17
28000;BME280;15328;50.860;10.562;2023-07-31T08:44:34;96069.75;;;18.80;61.84
28000;BME280;15328;50.860;10.562;2023-07-31T08:49:35;96073.72;;;18.93;61.62
28000;BME280;15328;50.860;10.562;2023-07-31T08:54:37;96058.25;;;19.09;62.20
28000;BME280;15328;50.860;10.562;2023-07-31T08:59:38;96052.22;;;19.22;60.82
28000;BME280;15328;50.860;10.562;2023-07-31T09:04:39;96051.38;;;19.27;60.90
28000;BME280;15328;50.860;10.562;2023-07-31T09:09:39;96044.97;;;19.52;61.38
28000;BME280;15328;50.860;10.562;2023-07-31T09:14:40;96050.81;;;19.64;60.30
28000;BME280;15328;50.860;10.562;2023-07-31T09:19:42;96052.47;;;19.60;59.67
28000;BME280;15328;50.860;10.562;2023-07-31T09:24:42;96055.16;;;19.60;60.06
28000;BME280;15328;50.860;10.562;2023-07-31T09:29:43;96053.22;;;19.65;59.66
28000;BME280;15328;50.860;10.562;2023-07-31T09:34:43;96059.34;;;19.76;58.67
28000;BME280;15328;50.860;10.562;2023-07-31T09:39:47;96061.56;;;19.69;57.75
28000;BME280;15328;50.860;10.562;2023-07-31T09:44:48;96032.06;;;19.78;57.83
28000;BME280;15328;50.860;10.562;2023-07-31T09:49:48;96031.44;;;19.86;58.20
28000;BME280;15328;50.860;10.562;2023-07-31T09:54:49;96041.63;;;20.18;58.08
28000;BME280;15328;50.860;10.562;2023-07-31T09:59:50;96034.16;;;20.57;56.87
28000;BME280;15328;50.860;10.562;2023-07-31T10:04:57;96045.75;;;20.95;55.66
28000;BME280;15328;50.860;10.562;2023-07-31T10:09:59;96038.53;;;20.91;52.56
28000;BME280;15328;50.860;10.562;2023-07-31T10:15:00;96034.94;;;20.95;54.23
28000;BME280;15328;50.860;10.562;2023-07-31T10:20:01;96047.06;;;20.98;54.08
28000;BME280;15328;50.860;10.562;2023-07-31T10:25:07;96024.84;;;21.20;53.83
28000;BME280;15328;50.860;10.562;2023-07-31T10:30:11;96027.56;;;21.20;53.08
28000;BME280;15328;50.860;10.562;2023-07-31T10:35:12;96023.63;;;21.12;53.07
28000;BME280;15328;50.860;10.562;2023-07-31T10:40:23;96027.94;;;20.94;53.09
28000;BME280;15328;50.860;10.562;2023-07-31T10:45:35;96022.69;;;20.84;53.70
28000;BME280;15328;50.860;10.562;2023-07-31T10:50:38;96003.41;;;20.72;54.71
28000;BME280;15328;50.860;10.562;2023-07-31T10:55:40;96003.56;;;20.62;55.48
28000;BME280;15328;50.860;10.562;2023-07-31T11:00:42;95993.13;;;20.55;55.63
28000;BME280;15328;50.860;10.562;2023-07-31T11:10:47;95988.34;;;20.66;56.72
28000;BME280;15328;50.860;10.562;2023-07-31T11:15:47;95977.75;;;20.51;57.66
28000;BME280;15328;50.860;10.562;2023-07-31T11:20:48;95979.22;;;20.62;58.33
28000;BME280;15328;50.860;10.562;2023-07-31T11:25:49;95965.69;;;20.81;58.26
28000;BME280;15328;50.860;10.562;2023-07-31T11:30:50;95955.88;;;21.04;58.66
28000;BME280;15328;50.860;10.562;2023-07-31T11:35:50;95947.97;;;21.26;57.02
28000;BME280;15328;50.860;10.562;2023-07-31T11:40:52;95954.81;;;21.51;57.23
28000;BME280;15328;50.860;10.562;2023-07-31T11:46:00;95957.94;;;21.85;56.12
28000;BME280;15328;50.860;10.562;2023-07-31T11:51:04;95942.44;;;22.05;55.06
28000;BME280;15328;50.860;10.562;2023-07-31T11:56:06;95936.13;;;21.96;53.10
28000;BME280;15328;50.860;10.562;2023-07-31T12:01:08;95920.56;;;21.87;52.33
28000;BME280;15328;50.860;10.562;2023-07-31T12:06:09;95936.00;;;22.01;54.34
28000;BME280;15328;50.860;10.562;2023-07-31T12:11:15;95916.97;;;22.19;52.31
28000;BME280;15328;50.860;10.562;2023-07-31T12:16:17;95922.50;;;22.50;51.18
28000;BME280;15328;50.860;10.562;2023-07-31T12:21:19;95928.22;;;22.49;49.08
28000;BME280;15328;50.860;10.562;2023-07-31T12:26:20;95912.13;;;22.16;50.61
28000;BME280;15328;50.860;10.562;2023-07-31T12:31:21;95907.69;;;22.34;49.82
28000;BME280;15328;50.860;10.562;2023-07-31T12:36:23;95923.22;;;22.42;50.73
28000;BME280;15328;50.860;10.562;2023-07-31T12:41:24;95942.41;;;22.32;50.35
28000;BME280;15328;50.860;10.562;2023-07-31T12:46:44;95918.34;;;22.17;50.20
28000;BME280;15328;50.860;10.562;2023-07-31T12:52:05;95919.16;;;22.17;50.52
28000;BME280;15328;50.860;10.562;2023-07-31T12:57:09;95936.50;;;22.03;50.22
28000;BME280;15328;50.860;10.562;2023-07-31T13:02:30;95917.94;;;21.82;50.11
28000;BME280;15328;50.860;10.562;2023-07-31T13:07:33;95914.34;;;21.73;49.36
28000;BME280;15328;50.860;10.562;2023-07-31T13:12:34;95902.13;;;21.48;50.49
28000;BME280;15328;50.860;10.562;2023-07-31T13:17:35;95907.91;;;21.28;51.48
28000;BME280;15328;50.860;10.562;2023-07-31T13:22:45;95909.16;;;21.17;52.73
28000;BME280;15328;50.860;10.562;2023-07-31T13:27:55;95904.94;;;21.11;53.45
28000;BME280;15328;50.860;10.562;2023-07-31T13:33:04;95897.34;;;21.13;52.96
28000;BME280;15328;50.860;10.562;2023-07-31T13:38:20;95894.00;;;21.02;53.35
28000;BME280;15328;50.860;10.562;2023-07-31T13:43:20;95891.56;;;20.87;53.72
28000;BME280;15328;50.860;10.562;2023-07-31T13:48:21;95887.75;;;20.88;54.26
28000;BME280;15328;50.860;10.562;2023-07-31T13:53:32;95881.63;;;20.82;54.73
28000;BME280;15328;50.860;10.562;2023-07-31T13:58:35;95874.84;;;20.85;54.85
28000;BME280;15328;50.860;10.562;2023-07-31T14:03:35;95873.22;;;20.84;54.76
28000;BME280;15328;50.860;10.562;2023-07-31T14:08:38;95870.59;;;20.79;54.83
28000;BME280;15328;50.860;10.562;2023-07-31T14:13:42;95882.66;;;20.86;55.42
28000;BME280;15328;50.860;10.562;2023-07-31T14:18:42;95866.84;;;20.93;55.12
28000;BME280;15328;50.860;10.562;2023-07-31T14:23:43;95868.34;;;20.86;54.40
28000;BME280;15328;50.860;10.562;2023-07-31T14:28:43;95881.91;;;20.81;54.76
28000;BME280;15328;50.860;10.562;2023-07-31T14:33:43;95876.38;;;20.72;55.16
28000;BME280;15328;50.860;10.562;2023-07-31T14:38:44;95864.47;;;20.73;55.87
28000;BME280;15328;50.860;10.562;2023-07-31T14:43:47;95849.06;;;20.74;56.18
28000;BME280;15328;50.860;10.562;2023-07-31T14:48:48;95835.25;;;20.75;56.13
28000;BME280;15328;50.860;10.562;2023-07-31T14:53:48;95834.28;;;20.85;56.10
28000;BME280;15328;50.860;10.562;2023-07-31T14:58:48;95835.91;;;20.99;55.94
28000;BME280;15328;50.860;10.562;2023-07-31T15:03:49;95829.00;;;21.07;55.33
28000;BME280;15328;50.860;10.562;2023-07-31T15:08:53;95828.50;;;21.05;55.35
28000;BME280;15328;50.860;10.562;2023-07-31T15:13:54;95816.22;;;21.13;55.01
28000;BME280;15328;50.860;10.562;2023-07-31T15:18:54;95823.81;;;21.11;54.62
28000;BME280;15328;50.860;10.562;2023-07-31T15:23:55;95803.81;;;21.12;54.56
28000;BME280;15328;50.860;10.562;2023-07-31T15:29:05;95810.09;;;21.21;54.66
28000;BME280;15328;50.860;10.562;2023-07-31T15:34:09;95805.00;;;21.33;54.41
28000;BME280;15328;50.860;10.562;2023-07-31T15:39:09;95802.94;;;21.44;54.17
28000;BME280;15328;50.860;10.562;2023-07-31T15:44:10;95807.91;;;21.50;54.44
28000;BME280;15328;50.860;10.562;2023-07-31T15:49:12;95798.47;;;21.62;54.57
28000;BME280;15328;50.860;10.562;2023-07-31T15:54:13;95783.75;;;21.68;52.75
28000;BME280;15328;50.860;10.562;2023-07-31T15:59:14;95786.66;;;21.71;52.96
28000;BME280;15328;50.860;10.562;2023-07-31T16:04:15;95776.28;;;21.87;53.15
28000;BME280;15328;50.860;10.562;2023-07-31T16:09:15;95778.28;;;21.95;52.40
28000;BME280;15328;50.860;10.562;2023-07-31T16:14:16;95774.00;;;21.80;50.14
28000;BME280;15328;50.860;10.562;2023-07-31T16:19:16;95769.72;;;21.66;50.84
28000;BME280;15328;50.860;10.562;2023-07-31T16:24:16;95760.28;;;21.63;51.32
28000;BME280;15328;50.860;10.562;2023-07-31T16:29:17;95753.38;;;21.57;51.32
28000;BME280;15328;50.860;10.562;2023-07-31T16:34:17;95751.69;;;21.61;51.86
28000;BME280;15328;50.860;10.562;2023-07-31T16:39:17;95758.09;;;21.65;51.98
28000;BME280;15328;50.860;10.562;2023-07-31T16:44:18;95774.13;;;21.62;51.20
28000;BME280;15328;50.860;10.562;2023-07-31T16:49:18;95788.59;;;21.43;51.46
28000;BME280;15328;50.860;10.562;2023-07-31T16:54:19;95778.69;;;21.39;51.80
28000;BME280;15328;50.860;10.562;2023-07-31T16:59:19;95756.44;;;21.28;51.61
28000;BME280;15328;50.860;10.562;2023-07-31T17:04:20;95752.44;;;21.25;51.50
28000;BME280;15328;50.860;10.562;2023-07-31T17:09:20;95725.16;;;21.22;52.23
28000;BME280;15328;50.860;10.562;2023-07-31T17:14:20;95718.97;;;21.35;52.42
28000;BME280;15328;50.860;10.562;2023-07-31T17:19:21;95712.38;;;21.27;52.17
28000;BME280;15328;50.860;10.562;2023-07-31T17:24:24;95715.44;;;21.21;51.57
28000;BME280;15328;50.860;10.562;2023-07-31T17:29:29;95722.56;;;21.17;52.08
28000;BME280;15328;50.860;10.562;2023-07-31T17:34:32;95717.78;;;21.14;51.86
28000;BME280;15328;50.860;10.562;2023-07-31T17:39:33;95712.66;;;20.98;52.09
28000;BME280;15328;50.860;10.562;2023-07-31T17:44:33;95720.06;;;20.93;52.46
28000;BME280;15328;50.860;10.562;2023-07-31T17:49:33;95710.56;;;20.95;53.19
28000;BME280;15328;50.860;10.562;2023-07-31T17:54:34;95712.75;;;20.93;53.09
28000;BME280;15328;50.860;10.562;2023-07-31T17:59:34;95718.47;;;20.92;53.12
28000;BME280;15328;50.860;10.562;2023-07-31T18:04:34;95710.97;;;20.89;53.13
28000;BME280;15328;50.860;10.562;2023-07-31T18:09:35;95700.94;;;20.76;53.13
28000;BME280;15328;50.860;10.562;2023-07-31T18:14:35;95705.84;;;20.74;53.11
28000;BME280;15328;50.860;10.562;2023-07-31T18:19:37;95704.66;;;20.66;53.40
28000;BME280;15328;50.860;10.562;2023-07-31T18:24:38;95703.53;;;20.67;53.34
28000;BME280;15328;50.860;10.562;2023-07-31T18:29:38;95710.34;;;20.64;53.89
28000;BME280;15328;50.860;10.562;2023-07-31T18:34:39;95708.03;;;20.58;54.05
28000;BME280;15328;50.860;10.562;2023-07-31T18:39:39;95703.41;;;20.45;54.18
28000;BME280;15328;50.860;10.562;2023-07-31T18:44:39;95700.22;;;20.43;54.12
28000;BME280;15328;50.860;10.562;2023-07-31T18:49:40;95691.38;;;20.37;54.52
28000;BME280;15328;50.860;10.562;2023-07-31T18:54:40;95695.47;;;20.34;55.34
28000;BME280;15328;50.860;10.562;2023-07-31T18:59:40;95699.94;;;20.25;54.82
28000;BME280;15328;50.860;10.562;2023-07-31T19:04:41;95689.72;;;20.22;54.93
28000;BME280;15328;50.860;10.562;2023-07-31T19:09:41;95692.44;;;20.22;55.03
28000;BME280;15328;50.860;10.562;2023-07-31T19:14:42;95689.53;;;20.19;55.00
28000;BME280;15328;50.860;10.562;2023-07-31T19:19:43;95686.78;;;20.05;55.59
28000;BME280;15328;50.860;10.562;2023-07-31T19:24:43;95674.75;;;19.97;55.74
28000;BME280;15328;50.860;10.562;2023-07-31T19:29:44;95684.53;;;19.93;56.09
28000;BME280;15328;50.860;10.562;2023-07-31T19:34:44;95676.03;;;19.86;56.32
28000;BME280;15328;50.860;10.562;2023-07-31T19:39:44;95684.34;;;19.90;56.64
28000;BME280;15328;50.860;10.562;2023-07-31T19:44:45;95671.59;;;19.77;57.28
28000;BME280;15328;50.860;10.562;2023-07-31T19:49:45;95663.22;;;19.59;58.28
28000;BME280;15328;50.860;10.562;2023-07-31T19:54:45;95643.38;;;19.50;59.14
28000;BME280;15328;50.860;10.562;2023-07-31T19:59:46;95635.31;;;19.31;59.61
28000;BME280;15328;50.860;10.562;2023-07-31T20:04:46;95636.31;;;19.17;60.56
28000;BME280;15328;50.860;10.562;2023-07-31T20:09:47;95617.09;;;19.04;61.39
28000;BME280;15328;50.860;10.562;2023-07-31T20:14:48;95630.34;;;19.01;62.17
28000;BME280;15328;50.860;10.562;2023-07-31T20:19:49;95623.13;;;18.96;62.19
28000;BME280;15328;50.860;10.562;2023-07-31T20:24:49;95615.13;;;18.91;62.45
28000;BME280;15328;50.860;10.562;2023-07-31T20:29:49;95618.06;;;18.90;62.88
28000;BME280;15328;50.860;10.562;2023-07-31T20:34:50;95621.34;;;18.87;63.03
28000;BME280;15328;50.860;10.562;2023-07-31T20:39:50;95617.34;;;18.84;63.07
28000;BME280;15328;50.860;10.562;2023-07-31T20:44:51;95609.25;;;18.84;63.19
28000;BME280;15328;50.860;10.562;2023-07-31T20:49:51;95601.84;;;18.76;63.52
28000;BME280;15328;50.860;10.562;2023-07-31T20:54:51;95597.31;;;18.71;63.98
28000;BME280;15328;50.860;10.562;2023-07-31T20:59:52;95589.81;;;18.68;64.13
28000;BME280;15328;50.860;10.562;2023-07-31T21:04:52;95566.75;;;18.57;64.62
28000;BME280;15328;50.860;10.562;2023-07-31T21:09:52;95563.75;;;18.59;64.80
28000;BME280;15328;50.860;10.562;2023-07-31T21:14:53;95549.66;;;18.48;65.26
28000;BME280;15328;50.860;10.562;2023-07-31T21:19:53;95530.50;;;18.49;65.23
28000;BME280;15328;50.860;10.562;2023-07-31T21:24:53;95523.06;;;18.41;65.55
28000;BME280;15328;50.860;10.562;2023-07-31T21:29:54;95505.09;;;18.37;65.98
28000;BME280;15328;50.860;10.562;2023-07-31T21:34:54;95508.00;;;18.40;66.40
28000;BME280;15328;50.860;10.562;2023-07-31T21:39:54;95499.94;;;18.40;66.19
28000;BME280;15328;50.860;10.562;2023-07-31T21:44:55;95494.09;;;18.33;66.52
28000;BME280;15328;50.860;10.562;2023-07-31T21:49:55;95485.06;;;18.24;67.36
28000;BME280;15328;50.860;10.562;2023-07-31T21:54:56;95474.50;;;18.28;67.46
28000;BME280;15328;50.860;10.562;2023-07-31T21:59:57;95482.16;;;18.20;67.91
28000;BME280;15328;50.860;10.562;2023-07-31T22:04:57;95469.84;;;18.14;68.18
28000;BME280;15328;50.860;10.562;2023-07-31T22:09:58;95463.75;;;18.09;68.59
28000;BME280;15328;50.860;10.562;2023-07-31T22:14:58;95451.22;;;18.18;68.27
28000;BME280;15328;50.860;10.562;2023-07-31T22:19:58;95444.66;;;18.05;69.08
28000;BME280;15328;50.860;10.562;2023-07-31T22:24:59;95439.56;;;18.04;68.77
28000;BME280;15328;50.860;10.562;2023-07-31T22:29:59;95434.97;;;18.04;68.85
28000;BME280;15328;50.860;10.562;2023-07-31T22:35:02;95405.97;;;18.01;69.13
28000;BME280;15328;50.860;10.562;2023-07-31T22:40:03;95392.66;;;17.91;69.24
28000;BME280;15328;50.860;10.562;2023-07-31T22:45:03;95374.41;;;17.88;69.40
28000;BME280;15328;50.860;10.562;2023-07-31T22:50:04;95374.91;;;17.90;69.41
28000;BME280;15328;50.860;10.562;2023-07-31T22:55:05;95368.44;;;17.91;69.30
28000;BME280;15328;50.860;10.562;2023-07-31T23:00:06;95361.31;;;17.81;69.67
28000;BME280;15328;50.860;10.562;2023-07-31T23:05:07;95361.06;;;17.78;70.07
28000;BME280;15328;50.860;10.562;2023-07-31T23:10:08;95343.84;;;17.79;69.98
28000;BME280;15328;50.860;10.562;2023-07-31T23:15:08;95307.69;;;17.66;70.67
28000;BME280;15328;50.860;10.562;2023-07-31T23:20:09;95300.66;;;17.70;70.39
28000;BME280;15328;50.860;10.562;2023-07-31T23:25:09;95289.44;;;17.63;71.25
28000;BME280;15328;50.860;10.562;2023-07-31T23:30:10;95296.13;;;17.66;70.49
28000;BME280;15328;50.860;10.562;2023-07-31T23:35:11;95301.59;;;17.60;71.35
28000;BME280;15328;50.860;10.562;2023-07-31T23:40:12;95290.25;;;17.64;71.35
28000;BME280;15328;50.860;10.562;2023-07-31T23:45:14;95290.25;;;17.64;71.35
28000;BME280;15328;50.860;10.562;2023-07-31T23:50:15;95296.38;;;17.69;70.93
28000;BME280;15328;50.860;10.562;2023-07-31T23:55:16;95280.28;;;17.64;71.23
